createdAt,value
2023-04-28T00:00:58.797Z,17.00
2023-04-28T00:03:34.347Z,18.60
2023-04-28T00:06:07.228Z,18.10
2023-04-28T00:08:35.809Z,17.60
2023-04-28T00:11:04.648Z,17.80
2023-04-28T00:13:33.448Z,16.20
2023-04-28T00:16:03.073Z,17.30
2023-04-28T00:18:33.838Z,16.90
2023-04-28T00:21:03.212Z,16.00
2023-04-28T00:23:33.589Z,14.70
2023-04-28T00:26:01.452Z,15.30
2023-04-28T00:28:34.497Z,14.40
2023-04-28T00:31:11.579Z,15.70
2023-04-28T00:33:41.957Z,14.90
2023-04-28T00:36:12.193Z,15.20
2023-04-28T00:38:42.629Z,15.80
2023-04-28T00:41:12.975Z,15.20
2023-04-28T00:46:35.092Z,13.30
2023-04-28T00:49:04.731Z,13.40
2023-04-28T00:54:06.847Z,13.40
2023-04-28T00:56:36.424Z,12.80
2023-04-28T00:59:07.520Z,13.40
2023-04-28T01:01:36.987Z,12.80
2023-04-28T01:06:38.007Z,13.30
2023-04-28T01:09:07.740Z,12.10
2023-04-28T01:11:38.760Z,12.50
2023-04-28T01:14:13.640Z,11.70
2023-04-28T01:16:44.933Z,11.80
2023-04-28T01:19:23.663Z,11.90
2023-04-28T01:21:52.654Z,11.90
2023-04-28T01:24:25.133Z,12.30
2023-04-28T01:26:56.803Z,12.30
2023-04-28T01:29:25.932Z,13.20
2023-04-28T01:31:54.520Z,11.90
2023-04-28T01:34:30.759Z,12.30
2023-04-28T01:37:04.544Z,12.30
2023-04-28T01:39:35.802Z,12.80
2023-04-28T01:42:08.117Z,11.80
2023-04-28T01:44:36.432Z,12.30
2023-04-28T01:47:05.911Z,12.20
2023-04-28T01:49:36.492Z,13.00
2023-04-28T01:52:07.551Z,10.50
2023-04-28T01:54:37.161Z,11.30
2023-04-28T01:57:09.864Z,12.10
2023-04-28T01:59:41.908Z,12.00
2023-04-28T02:02:14.913Z,11.70
2023-04-28T02:04:45.103Z,11.00
2023-04-28T02:07:30.229Z,12.30
2023-04-28T02:10:01.718Z,12.00
2023-04-28T02:12:40.486Z,12.00
2023-04-28T02:15:15.023Z,11.60
2023-04-28T02:17:47.142Z,11.40
2023-04-28T02:20:16.604Z,11.30
2023-04-28T02:25:16.851Z,10.20
2023-04-28T02:27:46.209Z,10.30
2023-04-28T02:30:21.028Z,11.80
2023-04-28T02:33:04.555Z,12.40
2023-04-28T02:35:32.943Z,10.90
2023-04-28T02:38:03.780Z,9.80
2023-04-28T02:40:34.324Z,11.40
2023-04-28T02:43:03.541Z,11.50
2023-04-28T02:45:35.356Z,10.80
2023-04-28T02:48:08.829Z,11.80
2023-04-28T02:50:41.794Z,11.40
2023-04-28T02:53:11.432Z,10.70
2023-04-28T02:55:40.331Z,11.80
2023-04-28T02:58:09.911Z,11.40
2023-04-28T03:03:12.495Z,10.40
2023-04-28T03:05:43.272Z,11.70
2023-04-28T03:08:13.241Z,11.10
2023-04-28T03:10:43.527Z,12.40
2023-04-28T03:13:13.760Z,12.90
2023-04-28T03:15:42.720Z,12.50
2023-04-28T03:18:11.939Z,13.10
2023-04-28T03:21:02.215Z,12.60
2023-04-28T03:23:39.007Z,12.50
2023-04-28T03:26:10.911Z,12.50
2023-04-28T03:28:43.652Z,12.60
2023-04-28T03:34:23.651Z,12.30
2023-04-28T03:37:02.560Z,13.00
2023-04-28T03:39:33.167Z,14.10
2023-04-28T03:42:39.393Z,13.20
2023-04-28T03:45:16.201Z,13.20
2023-04-28T03:47:45.796Z,13.20
2023-04-28T03:50:34.317Z,12.00
2023-04-28T03:53:23.590Z,12.10
2023-04-28T03:56:02.769Z,11.90
2023-04-28T03:58:36.033Z,11.50
2023-04-28T04:01:05.742Z,11.60
2023-04-28T04:03:41.917Z,11.30
2023-04-28T04:06:16.110Z,12.50
2023-04-28T04:09:10.053Z,12.00
2023-04-28T04:11:42.355Z,13.00
2023-04-28T04:14:19.386Z,13.00
2023-04-28T04:16:49.051Z,13.60
2023-04-28T04:19:30.357Z,13.30
2023-04-28T04:22:16.396Z,14.30
2023-04-28T04:25:45.145Z,13.20
2023-04-28T04:28:44.822Z,13.70
2023-04-28T04:31:36.437Z,13.80
2023-04-28T04:34:26.517Z,14.50
2023-04-28T04:37:22.507Z,12.40
2023-04-28T04:40:37.357Z,13.00
2023-04-28T04:43:56.608Z,10.90
2023-04-28T04:47:07.963Z,10.30
2023-04-28T04:50:13.131Z,10.20
2023-04-28T04:53:33.465Z,10.60
2023-04-28T04:57:03.064Z,11.20
2023-04-28T05:00:35.087Z,11.50
2023-04-28T05:03:07.857Z,12.10
2023-04-28T05:06:04.561Z,11.40
2023-04-28T05:09:16.481Z,11.90
2023-04-28T05:11:59.389Z,12.50
2023-04-28T05:15:08.889Z,11.50
2023-04-28T05:17:40.533Z,11.80
2023-04-28T05:20:55.635Z,12.80
2023-04-28T05:23:30.537Z,11.20
2023-04-28T05:26:00.873Z,10.20
2023-04-28T05:29:36.687Z,11.50
2023-04-28T05:32:34.154Z,11.00
2023-04-28T05:35:56.146Z,11.40
2023-04-28T05:39:06.689Z,12.40
2023-04-28T05:42:00.622Z,11.30
2023-04-28T05:44:46.095Z,12.00
2023-04-28T05:47:35.444Z,11.10
2023-04-28T05:50:57.122Z,12.40
2023-04-28T05:53:59.317Z,12.40
2023-04-28T05:57:10.736Z,12.20
2023-04-28T06:00:24.417Z,12.40
2023-04-28T06:04:33.979Z,11.40
2023-04-28T06:07:23.376Z,11.50
2023-04-28T06:09:58.348Z,10.30
2023-04-28T06:12:32.276Z,12.00
2023-04-28T06:15:59.356Z,10.50
2023-04-28T06:18:51.477Z,10.50
2023-04-28T06:22:19.208Z,10.30
2023-04-28T06:25:15.967Z,11.20
2023-04-28T06:28:20.423Z,12.70
2023-04-28T06:31:48.994Z,12.30
2023-04-28T06:34:58.588Z,10.80
2023-04-28T06:38:42.491Z,10.60
2023-04-28T06:41:53.547Z,11.60
2023-04-28T06:49:08.080Z,11.00
2023-04-28T06:53:15.157Z,10.70
2023-04-28T06:57:14.190Z,11.00
2023-04-28T07:01:09.419Z,10.80
2023-04-28T07:04:42.282Z,11.60
2023-04-28T07:08:18.651Z,10.60
2023-04-28T07:12:29.138Z,11.00
2023-04-28T07:15:58.360Z,11.10
2023-04-28T07:19:47.543Z,10.20
2023-04-28T07:23:39.351Z,9.40
2023-04-28T07:27:35.753Z,8.80
2023-04-28T07:30:29.201Z,8.00
2023-04-28T07:33:31.166Z,8.20
2023-04-28T07:36:41.669Z,7.20
2023-04-28T07:39:51.767Z,6.80
2023-04-28T07:42:35.468Z,7.10
2023-04-28T07:45:28.468Z,6.90
2023-04-28T07:48:43.507Z,6.20
2023-04-28T07:51:45.102Z,5.70
2023-04-28T07:58:57.221Z,6.80
2023-04-28T08:02:52.343Z,5.20
2023-04-28T08:06:19.284Z,5.90
2023-04-28T08:09:44.270Z,6.60
2023-04-28T08:13:14.248Z,5.70
2023-04-28T08:16:52.099Z,5.50
2023-04-28T08:20:26.820Z,5.30
2023-04-28T08:23:01.097Z,5.70
2023-04-28T08:25:48.691Z,6.30
2023-04-28T08:28:42.410Z,5.30
2023-04-28T08:32:14.316Z,17.00
2023-04-28T08:35:07.494Z,16.10
2023-04-28T08:37:39.299Z,8.40
2023-04-28T08:40:33.770Z,6.40
2023-04-28T08:43:15.456Z,6.30
2023-04-28T08:45:45.616Z,5.40
2023-04-28T08:48:20.982Z,5.50
2023-04-28T08:50:55.301Z,5.60
2023-04-28T08:53:59.496Z,5.70
2023-04-28T08:56:29.715Z,5.40
2023-04-28T08:59:02.716Z,5.30
2023-04-28T09:01:36.836Z,4.90
2023-04-28T09:04:05.717Z,14.10
2023-04-28T09:07:03.206Z,14.70
2023-04-28T09:09:37.040Z,6.40
2023-04-28T09:12:38.425Z,5.00
2023-04-28T09:15:15.284Z,5.80
2023-04-28T09:17:54.510Z,7.20
2023-04-28T09:20:30.258Z,6.10
2023-04-28T09:23:51.496Z,6.70
2023-04-28T09:26:26.419Z,7.10
2023-04-28T09:29:15.114Z,7.00
2023-04-28T09:31:49.865Z,7.50
2023-04-28T09:34:19.152Z,7.10
2023-04-28T09:37:19.730Z,7.00
2023-04-28T09:39:55.138Z,8.20
2023-04-28T09:42:50.701Z,8.40
2023-04-28T09:45:26.089Z,8.10
2023-04-28T09:51:38.245Z,8.10
2023-04-28T09:54:09.464Z,8.00
2023-04-28T09:56:46.092Z,7.40
2023-04-28T09:59:22.820Z,7.50
2023-04-28T10:02:35.795Z,7.90
2023-04-28T10:05:04.498Z,7.50
2023-04-28T10:07:37.765Z,8.70
2023-04-28T10:10:16.623Z,8.40
2023-04-28T10:12:50.781Z,8.80
2023-04-28T10:15:24.539Z,7.50
2023-04-28T10:18:02.011Z,7.70
2023-04-28T10:20:45.295Z,7.30
2023-04-28T10:24:19.717Z,6.10
2023-04-28T10:27:54.105Z,6.00
2023-04-28T10:30:43.874Z,5.80
2023-04-28T10:33:26.324Z,5.90
2023-04-28T10:36:05.345Z,5.40
2023-04-28T10:39:34.107Z,6.10
2023-04-28T10:42:15.969Z,5.40
2023-04-28T10:44:48.932Z,5.70
2023-04-28T10:47:23.929Z,6.00
2023-04-28T10:50:20.139Z,5.10
2023-04-28T10:52:53.916Z,4.30
2023-04-28T10:55:40.537Z,5.00
2023-04-28T10:58:41.443Z,4.50
2023-04-28T11:01:47.315Z,4.80
2023-04-28T11:04:20.315Z,4.60
2023-04-28T11:07:14.825Z,4.90
2023-04-28T11:09:55.635Z,4.80
2023-04-28T11:12:28.410Z,3.80
2023-04-28T11:15:35.630Z,3.50
2023-04-28T11:18:58.132Z,4.20
2023-04-28T11:22:09.338Z,3.60
2023-04-28T11:25:23.055Z,4.00
2023-04-28T11:29:19.724Z,3.90
2023-04-28T11:33:19.621Z,4.00
2023-04-28T11:37:12.948Z,3.70
2023-04-28T11:40:21.928Z,3.40
2023-04-28T11:44:47.383Z,3.70
2023-04-28T11:48:27.099Z,4.20
2023-04-28T11:55:02.726Z,4.00
2023-04-28T12:11:06.658Z,3.80
2023-04-28T12:14:29.366Z,3.70
2023-04-28T12:17:10.529Z,4.60
2023-04-28T12:20:36.860Z,4.40
2023-04-28T12:24:43.118Z,3.90
2023-04-28T12:28:06.243Z,4.50
2023-04-28T12:35:56.567Z,5.40
2023-04-28T12:40:21.328Z,5.10
2023-04-28T12:43:49.746Z,4.70
2023-04-28T12:46:38.322Z,3.60
2023-04-28T12:49:33.072Z,3.80
2023-04-28T12:52:46.489Z,3.80
2023-04-28T13:02:59.154Z,3.20
2023-04-28T13:14:46.522Z,2.80
2023-04-28T13:18:22.529Z,3.50
2023-04-28T13:32:58.253Z,3.90
2023-04-28T13:36:06.278Z,3.30
2023-04-28T13:39:21.345Z,2.40
2023-04-28T13:43:08.593Z,2.80
2023-04-28T13:46:28.074Z,2.90
2023-04-28T14:17:51.701Z,4.10
2023-04-28T14:52:19.670Z,4.40
2023-04-28T14:56:41.643Z,4.00
2023-04-28T15:00:45.933Z,4.20
2023-04-28T15:04:05.528Z,3.60
2023-04-28T15:07:33.942Z,4.10
2023-04-28T15:10:09.772Z,4.70
2023-04-28T15:13:18.083Z,4.10
2023-04-28T15:16:58.576Z,4.00
2023-04-28T15:20:17.443Z,3.80
2023-04-28T15:22:49.421Z,3.30
2023-04-28T15:26:02.300Z,3.20
2023-04-28T15:29:02.166Z,4.40
2023-04-28T15:34:54.130Z,4.20
2023-04-28T15:38:51.309Z,3.70
2023-04-28T15:41:57.070Z,4.60
2023-04-28T15:44:34.647Z,3.40
2023-04-28T15:47:02.857Z,4.90
2023-04-28T15:49:36.140Z,4.70
2023-04-28T15:52:14.225Z,4.40
2023-04-28T15:54:50.439Z,4.00
2023-04-28T15:57:32.024Z,4.30
2023-04-28T16:00:00.942Z,4.40
2023-04-28T16:02:40.013Z,3.80
2023-04-28T16:05:11.848Z,3.60
2023-04-28T16:07:48.630Z,4.40
2023-04-28T16:10:24.147Z,4.10
2023-04-28T16:13:12.467Z,3.50
2023-04-28T16:15:50.885Z,3.50
2023-04-28T16:18:41.844Z,3.70
2023-04-28T16:22:02.256Z,3.70
2023-04-28T16:24:56.140Z,3.00
2023-04-28T16:27:34.774Z,3.50
2023-04-28T16:30:07.651Z,3.60
2023-04-28T16:32:41.514Z,3.40
2023-04-28T16:35:53.813Z,2.90
2023-04-28T16:38:46.323Z,3.70
2023-04-28T16:41:26.144Z,3.40
2023-04-28T16:43:55.938Z,3.10
2023-04-28T16:46:26.908Z,3.30
2023-04-28T16:49:21.259Z,3.90
2023-04-28T16:52:08.638Z,3.40
2023-04-28T16:54:55.658Z,3.80
2023-04-28T16:57:49.055Z,3.60
2023-04-28T17:00:24.515Z,3.70
2023-04-28T17:02:57.123Z,3.90
2023-04-28T17:06:19.469Z,4.20
2023-04-28T17:09:48.662Z,4.60
2023-04-28T17:12:27.526Z,3.50
2023-04-28T17:15:11.442Z,4.10
2023-04-28T17:17:40.222Z,3.90
2023-04-28T17:20:08.651Z,3.80
2023-04-28T17:23:52.826Z,3.20
2023-04-28T17:27:41.413Z,3.20
2023-04-28T17:30:52.001Z,2.40
2023-04-28T17:35:15.795Z,2.60
2023-04-28T17:39:01.934Z,2.50
2023-04-28T17:43:22.462Z,2.60
2023-04-28T17:46:47.155Z,2.30
2023-04-28T17:50:30.791Z,2.30
2023-04-28T17:53:43.111Z,3.10
2023-04-28T18:04:37.909Z,2.30
2023-04-28T18:20:01.048Z,2.50
2023-04-28T18:24:04.185Z,2.20
2023-04-28T18:32:15.318Z,2.50
2023-04-28T18:40:38.706Z,2.20
2023-04-28T18:52:16.449Z,1.60
2023-04-28T19:00:07.678Z,1.90
2023-04-28T19:10:42.938Z,1.80
2023-04-28T19:17:44.579Z,1.70
2023-04-28T19:21:57.598Z,1.90
2023-04-28T19:25:40.961Z,2.40
2023-04-28T19:30:23.791Z,2.30
2023-04-28T19:38:18.240Z,1.80
2023-04-28T19:41:29.917Z,1.60
2023-04-28T19:49:27.654Z,1.20
2023-04-28T20:08:24.052Z,2.00
2023-04-28T20:12:09.978Z,2.00
2023-04-28T20:15:41.057Z,1.80
2023-04-28T20:58:31.121Z,1.40
2023-04-28T21:42:15.102Z,1.80
2023-04-28T22:14:01.283Z,1.40
